Time;durP1;ratioP1;P1;durP2;ratioP2;P2;SDS_P1;SDS_P2;PMS_P1;PMS_P2;Temp;Humidity;BMP_temperature;BMP_pressure;BME280_temperature;BME280_humidity;BME280_pressure;Samples;Min_cycle;Max_cycle;Signal;HPM_P1;HPM_P2
2023/04/18 00:00:09;;;;;;;10.32;7.60;;;;;;;9.68;77.77;98793.69;5089664;28;20024;-70
2023/04/18 00:02:37;;;;;;;11.90;7.82;;;;;;;9.68;76.84;98793.69;5091216;28;20748;-71
2023/04/18 00:05:04;;;;;;;10.25;7.78;;;;;;;9.67;77.07;98784.66;5089662;28;20034;-69
2023/04/18 00:07:30;;;;;;;11.38;8.35;;;;;;;9.67;77.35;98790.13;5090899;28;20016;-69
2023/04/18 00:09:55;;;;;;;11.20;8.52;;;;;;;9.67;76.88;98789.31;5090957;28;20089;-70
2023/04/18 00:12:21;;;;;;;9.40;7.43;;;;;;;9.68;77.55;98790.94;5090986;28;20461;-70
2023/04/18 00:14:49;;;;;;;10.55;8.07;;;;;;;9.68;76.93;98790.94;5090825;28;20397;-70
2023/04/18 00:17:14;;;;;;;10.93;8.00;;;;;;;9.68;76.97;98782.72;5092432;28;20584;-70
2023/04/18 00:19:40;;;;;;;12.35;7.90;;;;;;;9.68;77.29;98790.94;5092132;28;20151;-70
2023/04/18 00:22:06;;;;;;;8.70;6.95;;;;;;;9.68;77.31;98797.25;5092633;28;20052;-70
2023/04/18 00:24:31;;;;;;;12.20;8.15;;;;;;;9.67;77.44;98794.78;5092159;28;20504;-70
2023/04/18 00:26:57;;;;;;;12.45;7.70;;;;;;;9.68;77.21;98790.94;5087810;28;20028;-69
2023/04/18 00:29:22;;;;;;;10.60;7.03;;;;;;;9.70;77.85;98796.97;5091491;28;20016;-70
2023/04/18 00:31:48;;;;;;;9.38;7.03;;;;;;;9.68;78.14;98788.22;5092321;28;20054;-69
2023/04/18 00:34:13;;;;;;;11.85;7.30;;;;;;;9.68;77.31;98794.53;5092572;28;20020;-71
2023/04/18 00:36:38;;;;;;;8.27;6.22;;;;;;;9.71;77.86;98797.78;5091435;28;20077;-70
2023/04/18 00:39:05;;;;;;;9.30;6.28;;;;;;;9.72;77.70;98799.44;5091413;28;20036;-70
2023/04/18 00:41:30;;;;;;;7.28;5.38;;;;;;;9.69;77.39;98789.84;5091872;28;20020;-70
2023/04/18 00:43:56;;;;;;;8.50;6.28;;;;;;;9.67;77.17;98787.41;5093456;28;20368;-70
2023/04/18 00:46:21;;;;;;;9.45;6.22;;;;;;;9.66;77.33;98784.94;5091510;28;20117;-70
2023/04/18 00:48:47;;;;;;;8.32;6.30;;;;;;;9.64;77.52;98785.22;5090114;28;20103;-70
2023/04/18 00:51:12;;;;;;;9.77;6.20;;;;;;;9.62;78.03;98784.69;5090340;28;20147;-70
2023/04/18 00:53:39;;;;;;;8.63;6.30;;;;;;;9.63;77.39;98780.84;5090284;28;20390;-70
2023/04/18 00:56:06;;;;;;;8.32;6.28;;;;;;;9.61;77.91;98783.06;5090000;28;20048;-70
2023/04/18 00:58:31;;;;;;;8.15;5.82;;;;;;;9.59;77.37;98782.50;5090117;28;20385;-70
2023/04/18 01:00:57;;;;;;;7.78;5.93;;;;;;;9.60;78.05;98778.66;5089470;28;20032;-70
2023/04/18 01:03:24;;;;;;;7.63;5.90;;;;;;;9.62;77.37;98781.13;5090065;28;20034;-70
2023/04/18 01:05:49;;;;;;;7.18;5.75;;;;;;;9.61;77.12;98779.47;5089895;28;20048;-71
2023/04/18 01:08:17;;;;;;;10.38;6.30;;;;;;;9.60;77.63;98772.38;5089329;28;20144;-70
2023/04/18 01:10:43;;;;;;;9.02;6.10;;;;;;;9.59;77.98;98776.19;5089880;28;20105;-70
2023/04/18 01:13:17;;;;;;;7.85;5.78;;;;;;;9.61;77.63;98776.75;5089907;28;20028;-70
2023/04/18 01:15:46;;;;;;;8.00;6.00;;;;;;;9.59;77.33;98767.97;5087177;28;20489;-69
2023/04/18 01:18:12;;;;;;;9.18;6.13;;;;;;;9.60;77.52;98773.19;5089970;28;20024;-69
2023/04/18 01:20:46;;;;;;;8.65;5.97;;;;;;;9.59;77.79;98779.78;5089602;28;20367;-70
2023/04/18 01:23:12;;;;;;;7.90;5.53;;;;;;;9.57;77.62;98783.91;5089648;28;20022;-70
2023/04/18 01:25:38;;;;;;;9.88;6.25;;;;;;;9.59;77.57;98777.03;5089561;28;20452;-70
2023/04/18 01:28:04;;;;;;;8.90;6.50;;;;;;;9.58;78.27;98771.84;5089750;28;20524;-69
2023/04/18 01:30:31;;;;;;;8.23;6.22;;;;;;;9.59;78.04;98777.03;5088035;28;20016;-69
2023/04/18 01:32:57;;;;;;;9.55;7.60;;;;;;;9.59;77.70;98779.78;5089504;28;20020;-70
2023/04/18 01:35:22;;;;;;;10.60;7.43;;;;;;;9.61;78.33;98771.25;5089910;28;20024;-71
2023/04/18 01:37:48;;;;;;;8.75;6.53;;;;;;;9.60;77.79;98773.19;5090483;28;20051;-69
2023/04/18 01:40:13;;;;;;;13.65;8.80;;;;;;;9.60;77.68;98766.88;5090136;28;20176;-70
2023/04/18 01:42:39;;;;;;;11.02;7.57;;;;;;;9.60;78.09;98764.16;5090025;28;20048;-70
2023/04/18 01:45:05;;;;;;;8.23;6.35;;;;;;;9.59;78.66;98768.81;5090364;28;20043;-70
2023/04/18 01:47:31;;;;;;;8.40;6.20;;;;;;;9.59;78.16;98762.50;5089018;28;20055;-70
2023/04/18 01:49:56;;;;;;;9.88;6.28;;;;;;;9.57;77.82;98757.31;5087243;28;20023;-70
2023/04/18 01:52:21;;;;;;;7.97;6.32;;;;;;;9.58;77.74;98758.16;5089095;28;20589;-69
2023/04/18 01:54:47;;;;;;;10.05;6.88;;;;;;;9.58;77.66;98758.16;5090761;28;20020;-70
2023/04/18 01:57:12;;;;;;;8.85;7.22;;;;;;;9.58;78.30;98767.19;5090630;28;20558;-70
2023/04/18 01:59:37;;;;;;;7.43;6.13;;;;;;;9.58;78.30;98755.44;5091477;28;20028;-69
2023/04/18 02:02:03;;;;;;;11.32;7.38;;;;;;;9.57;78.16;98751.84;5087753;28;20020;-70
2023/04/18 02:04:28;;;;;;;9.10;6.53;;;;;;;9.57;78.26;98757.31;5087214;28;20059;-70
2023/04/18 02:06:53;;;;;;;9.30;7.60;;;;;;;9.57;77.96;98759.25;5091246;28;20469;-70
2023/04/18 02:09:19;;;;;;;11.02;8.82;;;;;;;9.57;78.13;98759.25;5091484;28;20042;-70
2023/04/18 02:11:45;;;;;;;11.38;8.65;;;;;;;9.55;78.35;98753.25;5091797;28;20028;-70
2023/04/18 02:14:10;;;;;;;10.63;8.55;;;;;;;9.57;78.11;98760.06;5083867;28;20462;-70
2023/04/18 02:16:36;;;;;;;12.40;8.85;;;;;;;9.59;77.96;98762.50;5076624;28;20040;-70
2023/04/18 02:19:03;;;;;;;11.48;8.23;;;;;;;9.58;78.25;98755.44;5089716;28;20028;-70
2023/04/18 02:21:29;;;;;;;10.85;7.35;;;;;;;9.57;77.81;98754.59;5095464;28;20063;-70
2023/04/18 02:23:54;;;;;;;10.82;7.68;;;;;;;9.59;77.95;98757.03;5092873;28;20024;-70
2023/04/18 02:26:20;;;;;;;10.57;8.35;;;;;;;9.60;78.85;98748.56;5086817;28;20055;-69
2023/04/18 02:28:45;;;;;;;9.38;7.25;;;;;;;9.59;78.57;98746.91;5075187;28;20112;-70
2023/04/18 02:31:13;;;;;;;9.77;7.28;;;;;;;9.58;78.16;98752.69;5075138;28;20064;-69
2023/04/18 02:33:44;;;;;;;9.98;6.70;;;;;;;9.56;78.56;98746.66;5075184;28;20024;-71
2023/04/18 02:36:11;;;;;;;9.30;7.43;;;;;;;9.56;78.19;98757.63;5082986;28;20020;-71
2023/04/18 02:38:37;;;;;;;9.35;7.30;;;;;;;9.54;78.08;98755.16;5093676;28;20132;-70
2023/04/18 02:41:02;;;;;;;9.40;7.47;;;;;;;9.53;78.63;98757.09;5094994;28;20557;-70
2023/04/18 02:43:28;;;;;;;9.05;6.72;;;;;;;9.52;77.99;98752.72;5091856;28;20016;-70
2023/04/18 02:45:56;;;;;;;9.00;6.30;;;;;;;9.50;77.47;98754.06;5093588;28;20052;-70
2023/04/18 02:48:22;;;;;;;7.80;5.93;;;;;;;9.45;78.15;98771.34;5079435;28;20029;-70
2023/04/18 02:50:48;;;;;;;7.47;5.75;;;;;;;9.42;78.27;98766.44;5093622;28;20036;-71
2023/04/18 02:53:14;;;;;;;8.20;5.35;;;;;;;9.39;78.38;98769.75;5095038;28;20104;-70
2023/04/18 02:55:39;;;;;;;6.90;5.50;;;;;;;9.38;78.47;98763.44;5093394;28;20054;-70
2023/04/18 02:58:04;;;;;;;7.13;5.90;;;;;;;9.41;78.05;98767.53;5095118;28;20020;-70
2023/04/18 03:00:30;;;;;;;7.82;6.00;;;;;;;9.43;78.46;98775.47;5094499;28;20055;-70
2023/04/18 03:02:56;;;;;;;6.82;4.85;;;;;;;9.43;77.83;98775.47;5094306;28;20020;-71
2023/04/18 03:05:21;;;;;;;5.47;4.22;;;;;;;9.39;77.88;98778.75;5078539;28;20029;-71
2023/04/18 03:07:46;;;;;;;7.45;4.72;;;;;;;9.37;78.59;98780.94;5088905;28;20085;-71
2023/04/18 03:10:12;;;;;;;6.25;4.97;;;;;;;9.37;78.06;98778.22;5091588;28;20069;-72
2023/04/18 03:12:37;;;;;;;6.78;4.78;;;;;;;9.38;78.40;98779.84;5095375;28;20027;-71
2023/04/18 03:15:03;;;;;;;7.07;5.32;;;;;;;9.38;78.97;98776.31;5078592;28;20105;-71
2023/04/18 03:17:28;;;;;;;6.43;4.30;;;;;;;9.36;77.97;98781.25;5094611;28;20020;-71
2023/04/18 03:19:54;;;;;;;5.20;4.03;;;;;;;9.36;78.17;98775.78;5090303;28;20132;-71
2023/04/18 03:22:19;;;;;;;6.82;4.13;;;;;;;9.38;78.28;98774.38;5074376;28;20021;-71
2023/04/18 03:24:44;;;;;;;5.20;3.88;;;;;;;9.40;78.28;98782.31;5075483;28;20535;-68
2023/04/18 03:27:11;;;;;;;5.75;4.30;;;;;;;9.43;78.19;98780.94;5092847;28;20058;-69
2023/04/18 03:29:37;;;;;;;6.35;4.20;;;;;;;9.44;78.24;98777.09;5093533;28;20028;-69
2023/04/18 03:32:03;;;;;;;6.00;4.47;;;;;;;9.46;78.48;98785.84;5094603;28;20054;-68
2023/04/18 03:34:28;;;;;;;6.70;4.82;;;;;;;9.48;78.32;98783.66;5082397;28;20382;-69
2023/04/18 03:36:53;;;;;;;6.10;4.40;;;;;;;9.49;78.59;98788.03;5111491;28;20019;-68
2023/04/18 03:39:19;;;;;;;5.15;4.53;;;;;;;9.50;78.57;98786.94;5109563;28;20474;-69
2023/04/18 03:41:46;;;;;;;5.65;4.00;;;;;;;9.50;78.26;98786.94;5094400;28;20325;-69
2023/04/18 03:44:11;;;;;;;6.38;5.13;;;;;;;9.52;77.82;98780.09;5094231;28;20016;-69
2023/04/18 03:46:36;;;;;;;5.80;4.57;;;;;;;9.54;78.41;98785.28;5094150;28;20507;-69
2023/04/18 03:49:02;;;;;;;6.22;5.05;;;;;;;9.53;78.42;98786.38;5093850;28;20020;-69
2023/04/18 03:51:32;;;;;;;6.75;4.50;;;;;;;9.55;79.39;98788.84;5098629;28;20107;-69
2023/04/18 03:53:57;;;;;;;5.82;4.45;;;;;;;9.52;77.73;98796.53;5113152;28;20027;-68
2023/04/18 03:56:22;;;;;;;4.95;3.95;;;;;;;9.52;78.38;98788.31;5114394;28;20135;-68
2023/04/18 03:58:48;;;;;;;5.32;4.32;;;;;;;9.52;78.20;98795.69;5114496;28;20427;-70
2023/04/18 04:01:13;;;;;;;8.30;5.82;;;;;;;9.51;78.97;98794.88;5112989;28;20458;-69
2023/04/18 04:03:39;;;;;;;6.45;4.47;;;;;;;9.49;78.74;98797.06;5114084;28;20047;-70
2023/04/18 04:06:05;;;;;;;5.80;4.32;;;;;;;9.52;78.42;98802.00;5114137;28;20510;-70
2023/04/18 04:08:30;;;;;;;6.18;4.72;;;;;;;9.50;78.15;98808.84;5114189;28;20023;-69
2023/04/18 04:10:55;;;;;;;6.93;5.13;;;;;;;9.49;77.84;98804.47;5114062;27;20024;-69
2023/04/18 04:13:21;;;;;;;7.22;5.43;;;;;;;9.47;78.80;98801.19;5114086;28;20059;-69
2023/04/18 04:15:46;;;;;;;7.35;5.65;;;;;;;9.45;78.02;98806.94;5112677;28;20443;-69
2023/04/18 04:18:11;;;;;;;9.82;6.20;;;;;;;9.44;78.49;98805.31;5113941;28;20030;-69
2023/04/18 04:20:37;;;;;;;7.50;6.18;;;;;;;9.47;78.40;98810.22;5112409;28;20533;-70
2023/04/18 04:23:02;;;;;;;9.93;6.78;;;;;;;9.47;78.53;98815.69;5111872;28;20031;-69
2023/04/18 04:25:28;;;;;;;10.32;6.75;;;;;;;9.49;78.37;98818.16;5113341;28;20038;-69
2023/04/18 04:27:54;;;;;;;10.25;7.05;;;;;;;9.49;78.30;98821.72;5110066;27;20505;-69
2023/04/18 04:30:20;;;;;;;9.43;7.32;;;;;;;9.50;77.82;98817.03;5092898;28;20382;-70
2023/04/18 04:32:46;;;;;;;12.00;8.15;;;;;;;9.52;78.57;98820.31;5093465;28;20500;-70
2023/04/18 04:35:12;;;;;;;12.88;8.95;;;;;;;9.55;78.24;98829.91;5093136;28;20035;-70
2023/04/18 04:37:39;;;;;;;15.32;9.32;;;;;;;9.57;78.77;98822.25;5093173;28;20044;-70
2023/04/18 04:40:08;;;;;;;12.23;8.80;;;;;;;9.59;78.65;98828.22;5093173;28;20465;-70
2023/04/18 04:42:34;;;;;;;15.25;9.70;;;;;;;9.61;78.86;98820.56;5092744;28;20122;-70
2023/04/18 04:45:00;;;;;;;16.02;10.48;;;;;;;9.60;78.68;98829.88;5093069;28;20031;-70
2023/04/18 04:47:25;;;;;;;16.20;10.35;;;;;;;9.62;79.14;98831.25;5091589;28;20036;-69
2023/04/18 04:49:51;;;;;;;14.15;9.85;;;;;;;9.63;78.15;98841.09;5090922;28;20484;-70
2023/04/18 04:52:16;;;;;;;15.15;9.48;;;;;;;9.63;78.57;98835.63;5092062;28;20035;-70
2023/04/18 04:54:43;;;;;;;16.33;10.60;;;;;;;9.63;78.31;98843.00;5092590;28;20107;-70
2023/04/18 04:57:09;;;;;;;17.52;10.48;;;;;;;9.66;78.82;98839.72;5092918;28;20024;-71
2023/04/18 04:59:35;;;;;;;13.88;9.88;;;;;;;9.67;79.25;98846.81;5092627;28;20035;-70
2023/04/18 05:02:00;;;;;;;15.32;9.63;;;;;;;9.67;78.52;98847.66;5091697;28;20061;-70
2023/04/18 05:04:25;;;;;;;15.30;10.02;;;;;;;9.70;78.31;98846.25;5092630;28;20491;-70
2023/04/18 05:06:51;;;;;;;14.68;9.75;;;;;;;9.70;78.26;98857.22;5092457;28;20055;-71
2023/04/18 05:09:16;;;;;;;15.82;9.75;;;;;;;9.71;78.32;98858.06;5092737;28;20081;-70
2023/04/18 05:11:41;;;;;;;14.27;9.95;;;;;;;9.73;78.20;98853.91;5092663;28;20069;-70
2023/04/18 05:14:07;;;;;;;15.90;10.30;;;;;;;9.77;78.39;98852.25;5092606;28;20413;-70
2023/04/18 05:16:32;;;;;;;14.20;9.52;;;;;;;9.79;78.65;98863.75;5092670;28;20042;-70
2023/04/18 05:18:58;;;;;;;16.75;11.30;;;;;;;9.85;79.11;98863.75;5092459;28;20474;-70
2023/04/18 05:21:24;;;;;;;17.38;11.25;;;;;;;9.86;78.02;98854.41;5092189;28;20028;-70
2023/04/18 05:23:50;;;;;;;16.10;10.48;;;;;;;9.88;78.53;98863.19;5091002;28;20176;-72
2023/04/18 05:26:16;;;;;;;16.08;10.73;;;;;;;9.90;78.21;98860.97;5089763;28;20708;-71
2023/04/18 05:28:41;;;;;;;17.02;11.70;;;;;;;9.92;78.13;98856.03;5085033;28;20031;-72
2023/04/18 05:31:07;;;;;;;18.05;11.02;;;;;;;9.95;78.24;98863.69;5090408;28;20028;-72
2023/04/18 05:33:32;;;;;;;20.95;12.70;;;;;;;10.01;78.68;98867.22;5090342;28;20500;-72
2023/04/18 05:35:58;;;;;;;20.00;12.30;;;;;;;10.05;78.55;98871.03;5090916;28;20047;-70
2023/04/18 05:38:24;;;;;;;17.15;11.43;;;;;;;10.07;78.17;98871.56;5088536;28;20081;-72
2023/04/18 05:40:50;;;;;;;20.73;12.32;;;;;;;10.11;78.12;98887.16;5088374;28;20047;-71
2023/04/18 05:43:17;;;;;;;16.75;11.35;;;;;;;10.15;78.50;98890.16;5088343;28;20503;-73
2023/04/18 05:45:43;;;;;;;18.52;12.77;;;;;;;10.16;78.15;98882.75;5084083;28;20016;-71
2023/04/18 05:48:08;;;;;;;18.02;11.52;;;;;;;10.21;77.83;98883.53;5088403;28;20656;-70
2023/04/18 05:50:33;;;;;;;20.65;12.02;;;;;;;10.22;78.12;98879.69;5088566;28;20024;-71
2023/04/18 05:52:59;;;;;;;18.55;12.13;;;;;;;10.25;78.30;98886.53;5085758;28;20016;-70
2023/04/18 05:55:24;;;;;;;19.40;12.38;;;;;;;10.33;77.99;98890.59;5087793;28;20107;-70
2023/04/18 05:57:50;;;;;;;16.98;11.30;;;;;;;10.33;78.47;98885.94;5085574;28;20024;-70
2023/04/18 06:00:16;;;;;;;20.48;12.07;;;;;;;10.33;77.91;98885.94;5086941;28;20148;-70
2023/04/18 06:02:41;;;;;;;19.88;11.95;;;;;;;10.36;77.80;98884.53;5088230;28;20039;-72
2023/04/18 06:05:07;;;;;;;16.70;11.15;;;;;;;10.37;78.08;98892.50;5085320;28;20031;-72
2023/04/18 06:07:33;;;;;;;15.95;11.38;;;;;;;10.36;77.64;98890.88;5087451;28;20169;-72
2023/04/18 06:09:58;;;;;;;18.38;11.57;;;;;;;10.36;77.98;98898.25;5088052;28;20452;-72
2023/04/18 06:12:24;;;;;;;19.60;12.10;;;;;;;10.35;77.83;98891.13;5087913;28;20032;-71
2023/04/18 06:14:49;;;;;;;19.48;12.30;;;;;;;10.32;77.63;98894.44;5087059;28;20032;-74
2023/04/18 06:17:15;;;;;;;20.10;11.48;;;;;;;10.34;77.47;98898.56;5086660;28;20035;-72
2023/04/18 06:19:40;;;;;;;21.80;13.10;;;;;;;10.33;77.10;98907.03;5086966;28;20401;-72
2023/04/18 06:22:06;;;;;;;21.15;12.43;;;;;;;10.34;76.75;98898.56;5087146;28;20069;-71
2023/04/18 06:24:31;;;;;;;20.90;12.20;;;;;;;10.33;77.46;98901.56;5086680;28;20024;-72
2023/04/18 06:26:56;;;;;;;21.60;12.77;;;;;;;10.37;76.88;98897.97;5086962;28;20036;-71
2023/04/18 06:29:22;;;;;;;20.92;12.75;;;;;;;10.39;76.82;98911.44;5087736;28;20028;-73
2023/04/18 06:31:50;;;;;;;20.08;12.18;;;;;;;10.42;76.84;98908.13;5085970;28;20031;-73
2023/04/18 06:34:16;;;;;;;17.75;11.23;;;;;;;10.47;77.48;98910.84;5085845;28;20389;-73
2023/04/18 06:36:41;;;;;;;18.85;11.27;;;;;;;10.53;77.28;98903.38;5087350;28;20024;-72
2023/04/18 06:39:07;;;;;;;17.70;11.23;;;;;;;10.59;76.64;98918.69;5087207;28;20718;-73
2023/04/18 06:41:32;;;;;;;15.75;10.48;;;;;;;10.65;76.70;98914.81;5088333;28;20035;-73
2023/04/18 06:43:57;;;;;;;15.60;9.95;;;;;;;10.74;76.79;98920.50;5087574;28;20064;-73
2023/04/18 06:46:23;;;;;;;16.30;9.85;;;;;;;10.83;77.16;98916.06;5092461;28;20047;-73
2023/04/18 06:48:49;;;;;;;17.38;11.15;;;;;;;10.89;76.56;98919.56;5088129;28;20473;-72
2023/04/18 06:51:15;;;;;;;17.77;10.80;;;;;;;10.96;76.26;98922.00;5086599;28;20036;-73
2023/04/18 06:53:40;;;;;;;16.70;10.90;;;;;;;11.01;75.91;98920.03;5087248;28;20031;-72
2023/04/18 06:56:06;;;;;;;17.70;10.63;;;;;;;11.07;75.79;98922.72;5083193;28;20035;-73
2023/04/18 06:58:32;;;;;;;15.80;9.68;;;;;;;11.10;75.25;98920.22;5091513;28;20036;-74
2023/04/18 07:00:57;;;;;;;14.68;10.48;;;;;;;11.12;75.14;98928.97;5088226;28;20055;-73
2023/04/18 07:03:22;;;;;;;15.25;10.68;;;;;;;11.15;75.23;98938.56;5090089;28;20083;-75
2023/04/18 07:05:49;;;;;;;17.48;10.57;;;;;;;11.20;75.43;98929.47;5088523;28;20547;-74
2023/04/18 07:08:15;;;;;;;16.10;10.65;;;;;;;11.26;75.25;98931.84;5090779;28;20031;-74
2023/04/18 07:10:41;;;;;;;16.70;10.95;;;;;;;11.38;75.06;98936.16;5087667;28;20031;-75
2023/04/18 07:13:06;;;;;;;15.77;10.55;;;;;;;11.50;75.50;98933.00;5089381;28;20020;-73
2023/04/18 07:15:34;;;;;;;14.80;9.20;;;;;;;11.58;74.37;98929.63;5090153;28;20028;-74
2023/04/18 07:17:59;;;;;;;15.80;9.55;;;;;;;11.64;74.28;98939.47;5086422;28;20028;-74
2023/04/18 07:20:25;;;;;;;13.23;8.85;;;;;;;11.74;74.01;98944.84;5089436;28;20477;-73
2023/04/18 07:22:50;;;;;;;12.32;8.90;;;;;;;11.82;73.18;98948.06;5089185;28;21356;-75
2023/04/18 07:25:16;;;;;;;12.43;8.25;;;;;;;11.85;73.47;98950.22;5089382;28;20048;-74
2023/04/18 07:27:41;;;;;;;11.95;7.47;;;;;;;11.94;73.45;98947.66;5090821;28;20024;-73
2023/04/18 07:30:07;;;;;;;14.52;8.32;;;;;;;12.06;72.74;98945.31;5090123;28;20056;-74
2023/04/18 07:32:33;;;;;;;13.25;9.52;;;;;;;12.17;73.55;98948.78;5090711;28;20027;-74
2023/04/18 07:34:58;;;;;;;13.55;9.00;;;;;;;12.30;72.16;98947.22;5088701;28;20032;-74
2023/04/18 07:37:24;;;;;;;16.08;9.82;;;;;;;12.35;71.77;98941.66;5090384;28;20024;-74
2023/04/18 07:39:50;;;;;;;13.60;9.23;;;;;;;12.38;72.44;98941.06;5085641;28;20036;-74
2023/04/18 07:42:16;;;;;;;14.95;9.30;;;;;;;12.41;71.59;98934.97;5090569;28;20748;-73
2023/04/18 07:44:42;;;;;;;14.80;8.75;;;;;;;12.39;71.78;98941.88;5088958;28;20035;-74
2023/04/18 07:47:10;;;;;;;15.77;9.52;;;;;;;12.42;71.80;98942.13;5089601;28;20038;-75
2023/04/18 07:49:36;;;;;;;13.55;9.43;;;;;;;12.45;71.27;98946.19;5090399;28;20110;-74
2023/04/18 07:52:02;;;;;;;16.55;9.30;;;;;;;12.49;70.68;98950.78;5089712;28;20115;-74
2023/04/18 07:54:28;;;;;;;12.88;8.10;;;;;;;12.51;71.08;98950.50;5088986;28;20102;-73
2023/04/18 07:56:53;;;;;;;12.43;8.00;;;;;;;12.61;70.99;98941.28;5086688;28;20031;-73
2023/04/18 07:59:19;;;;;;;12.40;7.18;;;;;;;12.69;71.16;98951.63;5089300;28;20090;-76
2023/04/18 08:01:45;;;;;;;10.85;7.20;;;;;;;12.79;70.55;98948.72;5086362;28;20032;-74
2023/04/18 08:04:10;;;;;;;11.48;6.90;;;;;;;12.84;70.23;98944.25;5086126;28;20473;-74
2023/04/18 08:06:36;;;;;;;11.02;7.18;;;;;;;12.89;69.80;98955.16;5089083;28;20024;-73
2023/04/18 08:09:04;;;;;;;13.63;7.57;;;;;;;12.95;69.60;98949.28;5088608;28;20032;-74
2023/04/18 08:11:33;;;;;;;15.57;9.20;;;;;;;13.00;69.16;98964.09;5087317;28;20020;-74
2023/04/18 08:13:59;;;;;;;11.98;7.80;;;;;;;12.99;68.32;98957.75;5085643;28;20038;-73
2023/04/18 08:16:24;;;;;;;13.10;9.10;;;;;;;13.00;67.86;98956.63;5086032;28;20024;-73
2023/04/18 08:18:50;;;;;;;14.25;9.38;;;;;;;13.01;68.23;98966.53;5087304;28;20036;-73
2023/04/18 08:21:15;;;;;;;11.93;8.07;;;;;;;13.11;68.59;98957.28;5086762;28;20070;-73
2023/04/18 08:23:41;;;;;;;12.77;8.23;;;;;;;13.21;68.07;98961.81;5087856;28;20032;-74
2023/04/18 08:26:06;;;;;;;12.75;7.68;;;;;;;13.24;67.05;98955.72;5082420;28;20024;-72
2023/04/18 08:28:32;;;;;;;9.93;7.28;;;;;;;13.21;65.92;98967.34;5089323;28;20034;-72
2023/04/18 08:30:57;;;;;;;10.48;7.55;;;;;;;13.20;66.47;98966.50;5089341;28;20038;-73
2023/04/18 08:33:23;;;;;;;9.13;6.60;;;;;;;13.17;66.07;98956.09;5089811;28;20028;-73
2023/04/18 08:35:50;;;;;;;10.60;7.68;;;;;;;13.10;65.42;98959.25;5087899;28;20082;-72
2023/04/18 08:38:16;;;;;;;9.73;6.25;;;;;;;13.09;65.63;98965.88;5090220;28;20067;-72
2023/04/18 08:40:42;;;;;;;9.65;5.95;;;;;;;13.12;66.21;98971.88;5087628;28;20111;-74
2023/04/18 08:43:11;;;;;;;9.02;5.80;;;;;;;13.20;65.00;98965.69;5087122;28;20070;-72
2023/04/18 08:45:37;;;;;;;8.95;5.80;;;;;;;13.25;65.34;98971.94;5085717;28;20112;-73
2023/04/18 08:48:03;;;;;;;8.52;5.82;;;;;;;13.29;64.48;98974.09;5088821;28;20020;-72
2023/04/18 08:50:28;;;;;;;9.52;6.57;;;;;;;13.30;65.01;98973.75;5089601;28;20032;-73
2023/04/18 08:52:54;;;;;;;9.90;6.20;;;;;;;13.34;63.64;98976.75;5086450;28;20039;-75
2023/04/18 08:55:21;;;;;;;8.88;6.78;;;;;;;13.32;63.67;98979.00;5086707;28;20016;-69
2023/04/18 08:57:48;;;;;;;9.88;6.65;;;;;;;13.35;63.71;98970.13;5084782;28;20050;-71
2023/04/18 09:00:16;;;;;;;8.15;5.85;;;;;;;13.36;63.30;98980.81;5083843;28;20478;-74
2023/04/18 09:02:42;;;;;;;9.48;5.85;;;;;;;13.35;63.49;98981.16;5083476;28;20032;-73
2023/04/18 09:05:18;;;;;;;8.90;6.18;;;;;;;13.36;63.97;98980.81;5093273;28;20015;-73
2023/04/18 09:07:44;;;;;;;11.05;6.57;;;;;;;13.40;63.77;98975.56;5094194;28;20032;-75
2023/04/18 09:10:11;;;;;;;9.23;5.75;;;;;;;13.45;64.12;98974.66;5086066;28;20031;-72
2023/04/18 09:12:49;;;;;;;6.88;5.38;;;;;;;13.54;63.83;98959.88;5091314;28;20028;-72
2023/04/18 09:15:16;;;;;;;8.65;5.88;;;;;;;13.66;64.20;98975.91;5087904;28;20016;-74
2023/04/18 09:17:52;;;;;;;10.32;5.95;;;;;;;13.77;63.08;98976.56;5090132;28;20028;-73
2023/04/18 09:20:34;;;;;;;9.07;5.95;;;;;;;13.89;63.42;98976.06;5089951;28;20110;-73
2023/04/18 09:23:02;;;;;;;7.18;5.47;;;;;;;13.98;63.13;98967.88;5087615;28;20051;-73
2023/04/18 09:25:41;;;;;;;7.75;5.88;;;;;;;14.09;63.37;98976.75;5089104;28;20085;-73
2023/04/18 09:28:28;;;;;;;9.38;5.30;;;;;;;14.23;63.45;98972.06;5087030;28;20071;-73
2023/04/18 09:30:56;;;;;;;6.90;4.82;;;;;;;14.34;62.38;98969.88;5086984;28;20030;-72
2023/04/18 09:33:32;;;;;;;7.88;4.72;;;;;;;14.42;60.89;98965.59;5084707;28;20024;-73
2023/04/18 09:36:18;;;;;;;8.63;5.00;;;;;;;14.50;62.13;98961.28;5081420;28;20093;-82
2023/04/18 09:38:43;;;;;;;8.02;4.80;;;;;;;14.54;59.80;98968.63;5082841;28;20048;-71
2023/04/18 09:41:10;;;;;;;7.22;5.22;;;;;;;14.52;60.31;98970.06;5081174;28;20036;-72
2023/04/18 09:43:36;;;;;;;6.93;5.30;;;;;;;14.55;60.54;98961.97;5079845;28;20393;-73
2023/04/18 09:46:03;;;;;;;8.07;5.13;;;;;;;14.66;60.18;98964.50;5086068;28;20039;-74
2023/04/18 09:48:28;;;;;;;6.07;4.50;;;;;;;14.70;60.29;98973.84;5086804;28;20039;-74
2023/04/18 09:50:54;;;;;;;6.60;5.22;;;;;;;14.84;60.63;98960.00;5089017;28;20032;-73
2023/04/18 09:53:20;;;;;;;6.38;4.80;;;;;;;14.97;60.40;98972.09;5086324;28;20106;-73
2023/04/18 09:55:50;;;;;;;6.25;4.70;;;;;;;15.06;59.71;98964.72;5088540;28;20119;-74
2023/04/18 09:58:17;;;;;;;;;;;;;;;15.12;60.37;98962.63;5089529;28;20040;-73
2023/04/18 10:00:44;;;;;;;7.38;4.70;;;;;;;15.20;60.19;98970.16;5089459;28;19923;-73
2023/04/18 10:03:13;;;;;;;6.75;4.57;;;;;;;15.26;58.52;98968.09;5089378;28;20055;-74
2023/04/18 10:05:40;;;;;;;5.68;4.68;;;;;;;15.25;57.86;98956.22;5091191;28;20020;-73
2023/04/18 10:08:06;;;;;;;6.85;4.40;;;;;;;15.25;57.64;98970.03;5091319;28;20117;-74
2023/04/18 10:10:32;;;;;;;6.50;4.25;;;;;;;15.25;58.46;98966.47;5091555;28;20028;-74
2023/04/18 10:13:00;;;;;;;8.07;4.75;;;;;;;15.22;56.57;98964.34;5091445;28;20036;-73
2023/04/18 10:15:30;;;;;;;6.38;5.65;;;;;;;15.17;57.65;98955.03;5091251;28;20028;-73
2023/04/18 10:17:59;;;;;;;5.22;3.80;;;;;;;15.17;56.40;98966.09;5089063;28;20115;-74
2023/04/18 10:20:30;;;;;;;7.40;3.78;;;;;;;15.13;55.09;98965.09;5090364;28;20031;-73
2023/04/18 10:22:57;;;;;;;7.18;3.80;;;;;;;15.07;55.08;98963.56;5091220;28;20047;-74
2023/04/18 10:25:38;;;;;;;7.28;4.00;;;;;;;15.05;55.77;98959.50;5087479;28;20012;-73
2023/04/18 10:28:07;;;;;;;7.30;4.47;;;;;;;15.08;55.64;98959.69;5090699;28;20028;-73
2023/04/18 10:30:39;;;;;;;6.85;4.07;;;;;;;15.17;55.54;98956.97;5091287;28;20473;-72
2023/04/18 10:33:35;;;;;;;6.53;4.50;;;;;;;15.20;56.17;98950.81;5090819;28;20401;-73
2023/04/18 10:36:06;;;;;;;8.50;4.97;;;;;;;15.32;56.50;98955.78;5085697;28;20103;-71
2023/04/18 10:38:32;;;;;;;6.68;5.13;;;;;;;15.47;57.01;98947.09;5090733;28;20075;-73
2023/04/18 10:41:15;;;;;;;7.70;4.78;;;;;;;15.55;55.51;98945.50;5081910;28;20032;-74
2023/04/18 10:44:08;;;;;;;7.07;4.35;;;;;;;15.62;55.87;98945.06;5090410;28;20028;-73
2023/04/18 10:46:57;;;;;;;6.22;4.47;;;;;;;15.67;54.82;98941.31;5072356;28;20555;-72
2023/04/18 10:49:24;;;;;;;8.02;4.43;;;;;;;15.71;54.75;98937.59;5073653;28;20048;-72
2023/04/18 10:51:52;;;;;;;5.45;4.15;;;;;;;15.72;53.73;98933.69;5093920;28;20028;-72
2023/04/18 10:54:27;;;;;;;5.63;4.07;;;;;;;15.73;52.48;98935.31;5093299;28;20030;-72
2023/04/18 10:57:03;;;;;;;7.05;4.10;;;;;;;15.75;52.91;98946.09;5092428;28;20020;-70
2023/04/18 10:59:31;;;;;;;6.60;4.53;;;;;;;15.77;52.84;98930.78;5091381;28;20125;-70
2023/04/18 11:02:03;;;;;;;6.78;5.38;;;;;;;15.81;53.26;98925.47;5091276;28;20071;-71
2023/04/18 11:04:29;;;;;;;9.15;5.68;;;;;;;15.91;54.07;98932.66;5071661;28;20106;-71
2023/04/18 11:06:56;;;;;;;6.15;5.30;;;;;;;15.98;54.05;98929.44;5078516;28;20031;-71
2023/04/18 11:09:22;;;;;;;9.95;5.97;;;;;;;16.00;53.85;98922.47;5093417;28;20077;-71
2023/04/18 11:12:09;;;;;;;9.45;5.07;;;;;;;16.04;54.45;98926.22;5094588;28;20027;-70
2023/04/18 11:14:45;;;;;;;7.60;4.60;;;;;;;16.09;53.74;98925.22;5095366;28;20020;-70
2023/04/18 11:17:21;;;;;;;5.40;4.50;;;;;;;16.12;53.45;98930.13;5094304;28;20020;-72
2023/04/18 11:19:47;;;;;;;6.25;4.28;;;;;;;16.16;52.76;98933.06;5094886;28;20497;-73
2023/04/18 11:22:13;;;;;;;5.47;3.60;;;;;;;16.10;50.87;98921.34;5094905;28;20016;-72
2023/04/18 11:24:39;;;;;;;7.70;3.80;;;;;;;16.07;50.25;98933.03;5089816;28;20036;-71
2023/04/18 11:27:08;;;;;;;5.85;3.80;;;;;;;16.04;49.89;98934.50;5093208;28;20429;-72
2023/04/18 11:29:33;;;;;;;4.25;3.58;;;;;;;16.05;50.21;98927.00;5092194;28;20020;-72